Time;durP1;ratioP1;P1;durP2;ratioP2;P2;SDS_P1;SDS_P2;PMS_P1;PMS_P2;Temp;Humidity;BMP_temperature;BMP_pressure;BME280_temperature;BME280_humidity;BME280_pressure;Samples;Min_cycle;Max_cycle;Signal;HPM_P1;HPM_P2
2022/02/11 00:04:05;;;;;;;3.70;2.80;;;6.30;99.90;;;;;;5002060;28;20205;-77
2022/02/11 00:06:49;;;;;;;2.85;1.27;;;6.20;99.90;;;;;;5006522;28;20202;-78
2022/02/11 00:09:15;;;;;;;2.08;1.30;;;6.20;99.90;;;;;;5003595;28;20182;-78
2022/02/11 00:11:41;;;;;;;2.93;1.30;;;6.30;99.90;;;;;;5005093;28;20178;-78
2022/02/11 00:14:09;;;;;;;4.82;1.50;;;6.20;99.90;;;;;;5004462;28;20266;-78
2022/02/11 00:16:38;;;;;;;2.88;1.38;;;6.20;99.90;;;;;;5005091;28;20289;-78
2022/02/11 00:19:04;;;;;;;2.80;1.75;;;6.20;99.90;;;;;;5004674;28;20250;-78
2022/02/11 00:21:30;;;;;;;3.90;1.52;;;6.30;99.90;;;;;;5006550;28;20510;-78
2022/02/11 00:23:57;;;;;;;2.38;1.55;;;6.20;99.90;;;;;;5004834;28;20257;-77
2022/02/11 00:26:38;;;;;;;3.90;1.73;;;6.20;99.90;;;;;;5005951;28;20211;-77
2022/02/11 00:34:25;;;;;;;1.92;1.55;;;6.20;99.90;;;;;;5005109;28;20257;-77
2022/02/11 00:45:30;;;;;;;4.63;1.85;;;6.20;99.90;;;;;;4996727;28;20305;-77
2022/02/11 01:04:06;;;;;;;3.42;2.70;;;6.00;99.90;;;;;;5004561;28;20225;-77
2022/02/11 01:06:32;;;;;;;2.63;1.80;;;6.00;99.90;;;;;;5003244;28;20246;-77
2022/02/11 01:08:58;;;;;;;7.17;1.93;;;6.00;99.90;;;;;;5004673;28;20210;-77
2022/02/11 01:12:06;;;;;;;2.40;1.97;;;5.90;99.90;;;;;;4993709;28;20666;-78
2022/02/11 01:14:13;;;;;;;3.03;2.20;;;5.80;99.90;;;;;;5002956;28;20697;-77
2022/02/11 01:16:44;;;;;;;4.23;2.53;;;5.80;99.90;;;;;;5007607;28;20233;-77
2022/02/11 01:19:28;;;;;;;4.10;2.30;;;5.70;99.90;;;;;;5004019;28;20732;-77
2022/02/11 01:22:11;;;;;;;3.67;3.15;;;5.60;99.90;;;;;;4987474;28;20264;-77
2022/02/11 01:30:43;;;;;;;7.07;4.18;;;5.50;99.90;;;;;;5004634;28;20185;-77
2022/02/11 01:36:05;;;;;;;4.30;3.90;;;5.40;99.90;;;;;;5003649;28;20592;-77
2022/02/11 01:42:30;;;;;;;5.07;3.13;;;5.30;99.90;;;;;;4981056;28;20198;-77
2022/02/11 01:54:48;;;;;;;4.35;3.45;;;5.20;99.90;;;;;;5005633;28;20186;-76
2022/02/11 02:13:53;;;;;;;5.25;4.20;;;5.10;99.90;;;;;;5001270;28;20190;-77
2022/02/11 02:24:11;;;;;;;5.75;4.05;;;5.00;99.90;;;;;;4983558;28;20183;-77
2022/02/11 02:30:33;;;;;;;6.25;4.90;;;5.00;99.90;;;;;;4986926;28;20635;-78
2022/02/11 02:59:26;;;;;;;11.13;6.60;;;5.00;99.90;;;;;;5000592;28;20293;-77
2022/02/11 03:02:01;;;;;;;9.65;5.75;;;5.00;99.90;;;;;;4983494;28;20285;-77
2022/02/11 04:55:04;;;;;;;7.05;5.85;;;5.70;99.90;;;;;;4986335;28;20214;-78
2022/02/11 05:00:16;;;;;;;9.57;5.53;;;5.80;99.90;;;;;;5009330;28;20181;-77
2022/02/11 05:02:45;;;;;;;10.65;6.40;;;5.90;99.90;;;;;;5002116;28;20187;-77
2022/02/11 05:05:12;;;;;;;8.57;5.88;;;5.90;99.90;;;;;;5005267;28;20185;-78
2022/02/11 05:07:38;;;;;;;10.93;6.32;;;5.90;99.90;;;;;;5001711;28;20190;-78
2022/02/11 05:10:06;;;;;;;12.32;5.97;;;6.00;99.90;;;;;;5001711;28;20177;-78
2022/02/11 05:12:31;;;;;;;13.55;6.13;;;6.00;99.90;;;;;;5004897;28;20186;-78
2022/02/11 05:14:57;;;;;;;10.27;5.50;;;6.00;99.90;;;;;;5002135;28;20174;-78
2022/02/11 05:17:23;;;;;;;10.23;5.40;;;6.00;99.90;;;;;;4979249;28;20202;-78
2022/02/11 05:19:48;;;;;;;12.87;5.87;;;6.00;99.90;;;;;;5001423;28;20202;-78
2022/02/11 05:22:14;;;;;;;9.80;5.97;;;6.10;99.90;;;;;;5005247;28;20189;-78
2022/02/11 05:24:40;;;;;;;7.80;5.38;;;6.10;99.90;;;;;;5001531;28;20536;-77
2022/02/11 05:27:06;;;;;;;10.90;6.03;;;6.10;99.90;;;;;;5001418;28;20194;-77
2022/02/11 05:29:32;;;;;;;7.93;5.10;;;6.10;99.90;;;;;;5005180;28;20287;-78
2022/02/11 05:31:57;;;;;;;13.30;6.00;;;6.10;99.90;;;;;;5001283;28;20186;-78
2022/02/11 05:34:23;;;;;;;10.87;5.40;;;6.10;99.90;;;;;;5001582;28;20214;-77
2022/02/11 05:36:49;;;;;;;9.15;6.03;;;6.20;99.90;;;;;;5004833;28;20563;-77
2022/02/11 05:39:16;;;;;;;7.90;4.37;;;6.20;99.90;;;;;;5004485;28;20288;-77
2022/02/11 05:41:42;;;;;;;7.70;4.88;;;6.20;99.90;;;;;;5001603;28;20199;-77
2022/02/11 05:44:07;;;;;;;9.40;4.50;;;6.30;99.90;;;;;;4986786;28;20190;-77
2022/02/11 05:46:33;;;;;;;6.97;5.13;;;6.30;99.90;;;;;;4983613;28;20206;-78
2022/02/11 05:49:00;;;;;;;11.97;4.20;;;6.30;99.90;;;;;;5004230;28;20193;-77
2022/02/11 05:51:26;;;;;;;9.65;4.55;;;6.30;99.90;;;;;;4991941;28;20179;-78
2022/02/11 05:53:52;;;;;;;7.00;4.57;;;6.30;99.90;;;;;;5004028;28;20189;-77
2022/02/11 05:56:18;;;;;;;7.80;4.50;;;6.30;99.90;;;;;;5001763;28;20669;-78
2022/02/11 05:58:44;;;;;;;6.95;4.00;;;6.30;99.90;;;;;;5004613;28;20244;-77
2022/02/11 06:01:10;;;;;;;9.63;4.83;;;6.30;99.90;;;;;;4998955;28;20206;-78
2022/02/11 06:03:35;;;;;;;9.83;4.47;;;6.40;99.90;;;;;;5002208;28;20237;-78
2022/02/11 06:06:01;;;;;;;6.77;3.67;;;6.40;99.90;;;;;;5002185;28;20841;-78
2022/02/11 06:08:27;;;;;;;6.27;3.60;;;6.40;99.90;;;;;;5005089;28;20182;-78
2022/02/11 06:10:53;;;;;;;5.82;3.95;;;6.50;99.90;;;;;;5002440;28;20625;-78
2022/02/11 06:13:19;;;;;;;5.80;3.80;;;6.50;99.90;;;;;;5000591;28;20182;-78
2022/02/11 06:15:45;;;;;;;9.33;4.70;;;6.50;99.90;;;;;;4972037;28;20654;-78
2022/02/11 06:18:11;;;;;;;6.97;4.20;;;6.60;99.90;;;;;;5026979;28;20206;-78
2022/02/11 06:20:37;;;;;;;9.50;4.65;;;6.60;99.90;;;;;;5018398;28;20178;-78
2022/02/11 06:23:03;;;;;;;10.07;4.70;;;6.60;99.90;;;;;;4988219;28;20179;-79
2022/02/11 06:25:29;;;;;;;6.10;3.53;;;6.60;99.90;;;;;;4999726;28;20513;-78
2022/02/11 06:27:55;;;;;;;5.82;3.22;;;6.60;99.90;;;;;;4981423;28;20175;-79
2022/02/11 06:30:21;;;;;;;10.50;5.37;;;6.60;99.90;;;;;;4982822;28;20182;-78
2022/02/11 06:32:47;;;;;;;4.32;3.25;;;6.70;99.90;;;;;;4992911;28;20589;-79
2022/02/11 06:35:13;;;;;;;7.13;4.00;;;6.70;99.90;;;;;;5002676;28;20174;-78
2022/02/11 06:37:45;;;;;;;8.23;3.72;;;6.70;99.90;;;;;;5001627;28;20885;-78
2022/02/11 06:40:12;;;;;;;10.23;3.53;;;6.70;99.90;;;;;;5000433;28;20241;-78
2022/02/11 06:42:38;;;;;;;12.40;4.60;;;6.70;99.90;;;;;;4990328;28;20233;-78
2022/02/11 06:45:04;;;;;;;6.30;4.10;;;6.70;99.90;;;;;;5002137;28;20182;-78
2022/02/11 06:47:30;;;;;;;11.07;4.30;;;6.70;99.90;;;;;;4976313;28;20617;-77
2022/02/11 06:49:56;;;;;;;6.07;3.83;;;6.60;99.90;;;;;;5006991;28;20213;-77
2022/02/11 06:52:21;;;;;;;9.97;3.57;;;6.70;99.90;;;;;;5002028;28;20178;-77
2022/02/11 06:54:47;;;;;;;6.60;2.77;;;6.70;99.90;;;;;;5001519;28;20179;-77
2022/02/11 06:57:13;;;;;;;7.93;3.93;;;6.70;99.90;;;;;;4992201;28;20626;-77
2022/02/11 06:59:39;;;;;;;9.40;3.27;;;6.70;99.90;;;;;;5001027;28;20237;-76
2022/02/11 07:02:15;;;;;;;10.90;2.87;;;6.70;99.90;;;;;;5001907;28;20221;-77
2022/02/11 07:04:40;;;;;;;6.07;3.42;;;6.80;99.90;;;;;;5002444;28;20656;-77
2022/02/11 07:07:06;;;;;;;9.40;2.43;;;6.80;99.90;;;;;;5000935;28;20186;-76
2022/02/11 07:09:32;;;;;;;9.67;2.73;;;6.80;99.90;;;;;;5000742;28;20644;-76
2022/02/11 07:11:58;;;;;;;9.93;3.13;;;6.90;99.90;;;;;;4991265;28;20217;-77
2022/02/11 07:14:25;;;;;;;9.03;3.07;;;6.90;99.90;;;;;;4992180;28;20218;-77
2022/02/11 07:16:50;;;;;;;7.63;2.70;;;6.90;99.90;;;;;;4983687;28;20202;-77
2022/02/11 07:19:16;;;;;;;8.53;2.43;;;7.00;99.90;;;;;;4992839;28;20253;-76
2022/02/11 07:21:41;;;;;;;6.60;2.57;;;7.00;99.90;;;;;;5001198;28;20178;-77
2022/02/11 07:24:07;;;;;;;8.93;2.90;;;7.10;99.90;;;;;;5001565;28;20233;-77
2022/02/11 07:26:33;;;;;;;9.10;2.72;;;7.10;99.90;;;;;;4972191;28;20195;-77
2022/02/11 07:28:59;;;;;;;8.98;2.70;;;7.10;99.90;;;;;;4996658;28;20175;-77
2022/02/11 07:31:25;;;;;;;10.30;2.90;;;7.20;99.90;;;;;;5005184;28;20178;-77
2022/02/11 07:33:51;;;;;;;9.93;2.80;;;7.20;99.90;;;;;;5002236;28;20181;-77
2022/02/11 07:36:18;;;;;;;11.67;3.13;;;7.30;99.90;;;;;;5008709;28;20202;-76
2022/02/11 07:38:43;;;;;;;9.98;2.80;;;7.20;99.90;;;;;;5007978;28;20202;-77
2022/02/11 07:41:09;;;;;;;8.07;2.23;;;7.30;99.90;;;;;;4991753;28;20185;-76
2022/02/11 07:43:35;;;;;;;7.73;2.40;;;7.30;99.90;;;;;;4990205;28;20245;-76
2022/02/11 07:46:01;;;;;;;9.03;2.60;;;7.30;99.90;;;;;;4994916;28;20202;-77
2022/02/11 07:48:27;;;;;;;13.32;3.78;;;7.40;99.90;;;;;;5007523;28;20658;-77
2022/02/11 07:50:53;;;;;;;7.03;3.33;;;7.40;99.90;;;;;;5010437;28;20257;-76
2022/02/11 07:53:19;;;;;;;11.77;4.95;;;7.40;99.90;;;;;;5004953;28;20515;-77
2022/02/11 07:55:45;;;;;;;9.00;4.20;;;7.40;99.90;;;;;;5007970;28;20189;-76
2022/02/11 07:58:13;;;;;;;10.48;4.85;;;7.50;99.90;;;;;;4999093;28;20972;-76
2022/02/11 08:00:39;;;;;;;8.55;4.22;;;7.50;99.90;;;;;;5001918;28;20175;-76
2022/02/11 08:03:04;;;;;;;12.50;3.67;;;7.50;99.90;;;;;;4982779;28;20234;-76
2022/02/11 08:05:30;;;;;;;7.17;2.80;;;7.60;99.90;;;;;;4992920;28;20682;-76
2022/02/11 08:07:56;;;;;;;8.33;3.53;;;7.70;99.90;;;;;;5009498;28;20714;-76
2022/02/11 08:10:22;;;;;;;16.05;5.60;;;7.80;99.90;;;;;;4990182;28;20590;-76
2022/02/11 08:12:48;;;;;;;7.80;4.57;;;7.80;99.90;;;;;;5000953;28;20687;-77
2022/02/11 08:15:14;;;;;;;12.90;4.57;;;7.80;99.90;;;;;;4991776;28;21129;-77
2022/02/11 08:17:42;;;;;;;10.33;3.40;;;7.90;99.90;;;;;;4993080;28;21176;-76
2022/02/11 08:20:09;;;;;;;12.23;3.88;;;7.90;99.90;;;;;;4997682;28;20203;-76
2022/02/11 08:22:34;;;;;;;20.02;5.45;;;8.00;99.90;;;;;;5002439;28;20174;-77
2022/02/11 08:25:00;;;;;;;14.10;4.00;;;8.10;99.90;;;;;;4999651;28;20187;-76
2022/02/11 08:27:26;;;;;;;10.23;3.73;;;8.10;99.90;;;;;;5005134;28;20201;-76
2022/02/11 08:29:52;;;;;;;8.50;2.90;;;8.10;99.90;;;;;;5003520;28;20598;-77
2022/02/11 08:32:19;;;;;;;10.10;4.30;;;8.10;99.90;;;;;;5006609;28;20174;-76
2022/02/11 08:34:46;;;;;;;8.15;4.15;;;8.10;99.90;;;;;;5013382;28;20182;-77
2022/02/11 08:37:11;;;;;;;8.00;3.28;;;8.10;99.90;;;;;;5009793;28;20209;-76
2022/02/11 08:39:38;;;;;;;13.63;5.13;;;8.10;99.90;;;;;;4996600;28;20206;-77
2022/02/11 08:42:06;;;;;;;9.88;3.60;;;8.10;99.90;;;;;;4997983;28;20591;-76
2022/02/11 08:44:32;;;;;;;10.60;3.03;;;8.10;99.90;;;;;;4998609;28;20210;-76
2022/02/11 08:46:59;;;;;;;7.05;2.15;;;8.10;99.90;;;;;;5005816;28;20205;-76
2022/02/11 08:49:24;;;;;;;7.65;2.78;;;8.20;99.90;;;;;;4993328;28;20179;-76
2022/02/11 08:51:50;;;;;;;8.57;2.50;;;8.10;99.90;;;;;;5005576;28;20253;-76
2022/02/11 08:54:16;;;;;;;7.13;2.57;;;8.10;99.90;;;;;;5002205;28;21065;-76
2022/02/11 08:56:42;;;;;;;9.60;2.23;;;8.20;99.90;;;;;;5003293;28;20281;-76
2022/02/11 08:59:08;;;;;;;4.30;2.17;;;8.30;99.90;;;;;;5011934;28;20625;-76
2022/02/11 09:01:34;;;;;;;6.07;3.30;;;8.40;99.90;;;;;;5002055;28;20214;-77
2022/02/11 09:04:00;;;;;;;6.55;2.80;;;8.50;99.90;;;;;;5005993;28;20585;-76
2022/02/11 09:06:26;;;;;;;9.48;2.10;;;8.70;99.90;;;;;;5005364;28;20194;-77
2022/02/11 09:08:52;;;;;;;13.23;3.37;;;8.90;99.90;;;;;;5002341;28;20341;-77
2022/02/11 09:11:21;;;;;;;13.03;2.53;;;9.10;99.90;;;;;;4974407;28;20530;-77
2022/02/11 09:13:48;;;;;;;5.55;1.92;;;9.20;99.90;;;;;;4989575;28;20269;-76
2022/02/11 09:16:14;;;;;;;11.68;3.28;;;9.30;99.90;;;;;;4999010;28;20206;-77
2022/02/11 09:18:40;;;;;;;8.95;2.55;;;9.40;99.90;;;;;;4997281;28;20198;-77
2022/02/11 09:21:11;;;;;;;10.43;2.97;;;9.60;99.90;;;;;;5012441;28;20182;-77
2022/02/11 09:23:37;;;;;;;13.57;2.25;;;9.80;99.90;;;;;;5011417;28;20589;-77
2022/02/11 09:26:03;;;;;;;7.90;2.50;;;10.00;99.90;;;;;;5000356;28;20751;-78
2022/02/11 09:28:29;;;;;;;13.30;3.78;;;10.20;99.90;;;;;;4993460;28;20183;-78
2022/02/11 09:30:56;;;;;;;6.28;2.03;;;10.30;99.90;;;;;;4989106;28;20543;-78
2022/02/11 09:33:21;;;;;;;5.67;1.83;;;10.50;99.90;;;;;;5001064;28;20183;-78
2022/02/11 09:35:49;;;;;;;8.67;2.17;;;11.00;99.90;;;;;;4985079;28;20183;-78
2022/02/11 09:38:18;;;;;;;8.77;2.42;;;11.70;99.90;;;;;;5003695;28;20231;-77
2022/02/11 09:40:50;;;;;;;6.77;1.80;;;12.30;99.90;;;;;;4971470;28;20171;-78
2022/02/11 09:43:17;;;;;;;7.70;2.10;;;13.00;99.90;;;;;;5008103;28;20623;-77
2022/02/11 09:45:44;;;;;;;6.10;1.53;;;13.40;99.90;;;;;;5004034;28;20597;-77
2022/02/11 09:48:11;;;;;;;5.60;1.43;;;13.80;99.90;;;;;;5005548;28;20633;-76
2022/02/11 09:50:37;;;;;;;12.93;2.30;;;14.00;99.90;;;;;;5007755;28;20594;-77
2022/02/11 09:53:03;;;;;;;11.60;2.23;;;14.30;99.90;;;;;;5012366;28;20611;-76
2022/02/11 09:55:32;;;;;;;4.50;1.80;;;14.30;99.90;;;;;;5005626;28;20608;-76
2022/02/11 09:58:06;;;;;;;10.00;1.90;;;14.10;99.90;;;;;;5006287;28;20732;-76
2022/02/11 10:00:34;;;;;;;8.97;2.60;;;14.10;99.90;;;;;;5011102;28;20596;-77
2022/02/11 10:03:14;;;;;;;4.50;1.53;;;14.10;99.90;;;;;;5013858;28;20574;-76
2022/02/11 10:05:40;;;;;;;6.20;1.90;;;14.00;99.90;;;;;;5008779;28;20611;-76
2022/02/11 10:08:05;;;;;;;7.97;1.80;;;14.20;99.90;;;;;;5006095;28;20668;-77
2022/02/11 10:10:38;;;;;;;9.00;1.73;;;14.40;99.90;;;;;;5001527;28;20179;-76
2022/02/11 10:13:30;;;;;;;7.93;1.80;;;14.60;99.90;;;;;;5004767;28;20617;-77
2022/02/11 10:16:14;;;;;;;4.53;2.20;;;15.00;99.90;;;;;;5001103;28;21014;-77
2022/02/11 10:18:46;;;;;;;7.47;2.13;;;15.30;99.90;;;;;;4999592;28;20696;-77
2022/02/11 10:21:20;;;;;;;10.33;3.33;;;15.40;99.90;;;;;;4961886;28;20585;-77
2022/02/11 10:23:47;;;;;;;9.53;2.20;;;15.30;99.90;;;;;;5001246;28;20705;-76
2022/02/11 10:26:18;;;;;;;7.60;1.90;;;15.00;99.90;;;;;;4993950;28;20601;-76
2022/02/11 10:28:52;;;;;;;5.43;1.60;;;14.70;99.90;;;;;;5001889;28;20581;-76
2022/02/11 10:31:34;;;;;;;5.60;1.97;;;14.30;99.90;;;;;;5004605;28;20593;-76
2022/02/11 10:34:08;;;;;;;10.07;2.20;;;13.90;99.90;;;;;;5001614;28;20590;-77
2022/02/11 10:36:48;;;;;;;8.23;2.13;;;13.60;99.90;;;;;;4999936;28;20645;-77
2022/02/11 10:39:21;;;;;;;12.15;2.70;;;13.20;99.90;;;;;;4999994;28;20675;-76
2022/02/11 10:41:53;;;;;;;10.35;2.05;;;12.80;99.90;;;;;;4998731;28;20178;-76
2022/02/11 10:44:22;;;;;;;7.70;1.73;;;12.50;99.90;;;;;;5002987;28;20178;-76
2022/02/11 10:46:56;;;;;;;8.82;2.33;;;12.10;99.90;;;;;;5001424;28;20199;-76
2022/02/11 10:49:35;;;;;;;8.25;2.65;;;11.90;99.90;;;;;;5000921;28;20194;-76
2022/02/11 10:52:18;;;;;;;8.43;1.80;;;11.70;99.90;;;;;;4982688;28;20183;-75
2022/02/11 10:54:49;;;;;;;10.15;1.92;;;11.40;99.90;;;;;;4975477;28;20189;-76
2022/02/11 10:57:16;;;;;;;5.75;1.40;;;11.30;99.90;;;;;;4983709;28;20683;-75
2022/02/11 10:59:47;;;;;;;11.18;2.17;;;11.10;99.90;;;;;;4984933;28;20218;-76
2022/02/11 11:02:21;;;;;;;6.82;1.95;;;11.00;99.90;;;;;;5000635;28;20198;-76
2022/02/11 11:04:49;;;;;;;5.05;1.60;;;11.10;99.90;;;;;;5000825;28;20179;-76
2022/02/11 11:07:29;;;;;;;9.73;2.10;;;11.30;99.90;;;;;;4986203;28;20610;-76
2022/02/11 11:09:56;;;;;;;9.37;2.90;;;11.60;99.90;;;;;;5006038;28;20636;-76
2022/02/11 11:12:25;;;;;;;8.33;3.47;;;11.80;99.90;;;;;;5001006;28;20609;-76
2022/02/11 11:14:55;;;;;;;8.00;1.93;;;12.00;99.90;;;;;;4999982;28;20574;-76
2022/02/11 11:17:23;;;;;;;7.27;1.57;;;12.20;99.90;;;;;;4994224;28;20663;-76
2022/02/11 11:19:51;;;;;;;7.53;1.73;;;12.40;99.90;;;;;;4999841;28;20613;-77
2022/02/11 11:22:31;;;;;;;7.75;2.38;;;12.50;99.90;;;;;;4993768;28;20569;-77
2022/02/11 11:25:10;;;;;;;9.00;2.33;;;12.50;99.90;;;;;;5000309;28;20190;-76
2022/02/11 11:27:50;;;;;;;5.85;1.77;;;12.50;99.90;;;;;;5006960;28;20606;-77
2022/02/11 11:30:23;;;;;;;9.45;1.60;;;12.40;99.90;;;;;;5000965;28;20265;-77
2022/02/11 11:33:04;;;;;;;7.72;1.65;;;12.40;99.90;;;;;;5002560;28;20635;-76
2022/02/11 11:35:53;;;;;;;7.07;1.92;;;12.30;99.90;;;;;;4999869;28;20179;-76
2022/02/11 11:38:22;;;;;;;6.25;1.70;;;12.20;99.90;;;;;;4989916;28;20214;-76
2022/02/11 11:41:09;;;;;;;10.55;2.30;;;12.10;99.90;;;;;;4982763;28;20176;-76
2022/02/11 11:43:39;;;;;;;11.00;2.30;;;12.00;99.90;;;;;;5000052;28;20172;-75
2022/02/11 11:46:32;;;;;;;8.80;2.60;;;11.90;99.90;;;;;;5011081;28;20568;-77
2022/02/11 11:49:07;;;;;;;7.88;2.38;;;11.70;99.90;;;;;;5003517;28;20211;-76
2022/02/11 11:51:35;;;;;;;8.02;1.90;;;11.50;99.90;;;;;;5000171;28;20588;-76
2022/02/11 11:54:21;;;;;;;6.90;1.40;;;11.40;99.90;;;;;;5011966;28;20214;-76
2022/02/11 11:56:52;;;;;;;6.43;1.55;;;11.20;99.90;;;;;;4988481;28;20199;-76
2022/02/11 11:59:29;;;;;;;4.75;2.15;;;11.00;99.90;;;;;;5009284;28;20202;-76
2022/02/11 12:02:13;;;;;;;7.30;1.60;;;10.90;99.90;;;;;;5005534;28;20175;-76
2022/02/11 12:04:39;;;;;;;5.43;1.90;;;10.70;99.90;;;;;;5006603;28;20178;-77
2022/02/11 12:07:10;;;;;;;9.93;2.10;;;10.60;99.90;;;;;;5013202;28;20299;-77
2022/02/11 12:09:38;;;;;;;11.55;3.20;;;10.50;99.90;;;;;;5006614;28;20215;-77
2022/02/11 12:12:06;;;;;;;4.80;1.83;;;10.40;99.90;;;;;;5009483;28;20229;-77
2022/02/11 12:14:34;;;;;;;7.55;2.72;;;10.40;99.90;;;;;;5008186;28;20179;-77
2022/02/11 12:17:03;;;;;;;7.45;2.13;;;10.30;99.90;;;;;;4996759;28;20206;-77
2022/02/11 12:19:30;;;;;;;8.60;1.30;;;10.40;99.90;;;;;;5006932;28;20198;-77
2022/02/11 12:21:57;;;;;;;9.50;2.05;;;10.40;99.90;;;;;;5015148;28;20178;-77
2022/02/11 12:27:30;;;;;;;5.38;1.50;;;10.60;99.90;;;;;;4992597;28;20548;-76
2022/02/11 12:29:59;;;;;;;7.65;1.80;;;10.60;99.90;;;;;;5010219;28;20621;-77
2022/02/11 12:32:45;;;;;;;8.68;1.95;;;10.70;99.90;;;;;;4986984;28;20182;-77
2022/02/11 12:35:16;;;;;;;5.18;1.58;;;10.70;99.90;;;;;;5002514;28;20230;-77
2022/02/11 12:37:43;;;;;;;12.68;1.70;;;10.70;99.90;;;;;;5010998;28;20248;-77
2022/02/11 12:40:15;;;;;;;7.90;2.13;;;10.70;99.90;;;;;;5008230;28;20209;-77
2022/02/11 12:42:44;;;;;;;5.90;1.38;;;10.60;99.90;;;;;;4998991;28;20181;-77
2022/02/11 12:45:12;;;;;;;5.75;1.95;;;10.60;99.90;;;;;;5001939;28;20182;-76
2022/02/11 12:47:39;;;;;;;7.53;1.50;;;10.50;99.90;;;;;;5004404;28;20528;-76
2022/02/11 12:50:09;;;;;;;4.60;1.25;;;10.50;99.90;;;;;;5002940;28;20185;-77
2022/02/11 12:52:37;;;;;;;3.78;1.65;;;10.50;99.90;;;;;;5004566;28;20182;-77
2022/02/11 12:55:16;;;;;;;6.57;1.27;;;10.50;99.90;;;;;;5008073;28;20184;-76
2022/02/11 12:57:50;;;;;;;5.60;1.77;;;10.50;99.90;;;;;;5005758;28;20400;-77
2022/02/11 13:00:20;;;;;;;11.45;2.03;;;10.50;99.90;;;;;;5009314;28;20218;-77
2022/02/11 13:02:47;;;;;;;4.25;0.98;;;10.50;99.90;;;;;;5004636;28;20971;-76
2022/02/11 13:05:24;;;;;;;4.30;1.10;;;10.40;99.90;;;;;;5003268;28;20174;-77
2022/02/11 13:07:52;;;;;;;7.55;1.88;;;10.40;99.90;;;;;;4985875;28;20210;-79
2022/02/11 13:10:29;;;;;;;8.45;1.92;;;10.30;99.90;;;;;;4970811;28;20179;-77
2022/02/11 13:13:01;;;;;;;9.60;1.77;;;10.20;99.90;;;;;;4996427;28;20758;-77
2022/02/11 13:15:32;;;;;;;5.40;1.63;;;10.20;99.90;;;;;;5011122;28;20221;-76
2022/02/11 13:18:10;;;;;;;5.65;2.20;;;10.10;99.90;;;;;;5010925;28;20181;-77
2022/02/11 13:20:38;;;;;;;5.50;1.90;;;10.10;99.90;;;;;;5004092;28;20188;-77
2022/02/11 13:23:05;;;;;;;5.47;1.80;;;10.10;99.90;;;;;;5003105;28;20194;-77
2022/02/11 13:25:32;;;;;;;5.18;1.42;;;10.10;99.90;;;;;;5007977;28;20219;-77
2022/02/11 13:28:04;;;;;;;4.25;1.55;;;10.20;99.90;;;;;;5005017;28;20182;-77
2022/02/11 13:30:32;;;;;;;5.47;1.25;;;10.40;99.90;;;;;;4985005;28;20179;-78
2022/02/11 13:33:00;;;;;;;5.75;1.27;;;10.50;99.90;;;;;;5007589;28;20237;-78
2022/02/11 13:35:26;;;;;;;10.70;2.13;;;10.50;99.90;;;;;;4988928;28;20201;-78
2022/02/11 13:37:58;;;;;;;6.17;1.67;;;10.60;99.90;;;;;;4993945;28;20203;-77
2022/02/11 13:40:26;;;;;;;6.10;1.50;;;10.60;99.90;;;;;;5006947;28;20632;-77
2022/02/11 13:43:05;;;;;;;10.18;1.42;;;10.60;99.90;;;;;;5008191;28;20206;-76
2022/02/11 13:46:06;;;;;;;3.75;1.67;;;10.50;99.90;;;;;;5006884;28;20273;-76
2022/02/11 13:48:48;;;;;;;5.68;1.67;;;10.40;99.90;;;;;;5001192;28;20185;-77
2022/02/11 13:51:17;;;;;;;9.48;1.77;;;10.40;99.90;;;;;;4997584;28;20197;-77
2022/02/11 13:53:48;;;;;;;7.85;1.77;;;10.30;99.90;;;;;;4985528;28;20510;-79
2022/02/11 13:56:19;;;;;;;5.88;1.65;;;10.10;97.80;;;;;;5018026;28;20197;-77
2022/02/11 13:59:08;;;;;;;5.32;1.58;;;10.00;99.70;;;;;;5018000;28;20209;-79
2022/02/11 14:01:45;;;;;;;4.45;1.38;;;9.90;99.90;;;;;;4999312;28;20269;-78
2022/02/11 14:04:19;;;;;;;5.43;1.10;;;9.80;99.90;;;;;;5000759;28;20546;-77
2022/02/11 14:06:53;;;;;;;8.90;1.75;;;9.70;99.90;;;;;;5006542;28;20240;-78
2022/02/11 14:09:38;;;;;;;6.30;1.48;;;9.60;98.40;;;;;;5001305;28;20186;-77
2022/02/11 14:12:06;;;;;;;5.85;1.35;;;9.60;99.70;;;;;;5002606;28;20183;-78
2022/02/11 14:14:33;;;;;;;4.72;1.30;;;9.60;99.90;;;;;;5007878;28;20594;-77
2022/02/11 14:17:00;;;;;;;7.65;2.50;;;9.50;99.90;;;;;;5014370;28;20599;-77
2022/02/11 14:19:27;;;;;;;5.65;1.70;;;9.50;99.90;;;;;;5013789;28;20265;-78
2022/02/11 14:21:59;;;;;;;6.22;1.35;;;9.50;99.90;;;;;;5008297;28;20169;-77
2022/02/11 14:24:27;;;;;;;4.00;1.10;;;9.40;98.60;;;;;;5010876;28;20167;-77
2022/02/11 14:26:54;;;;;;;3.70;1.10;;;9.40;99.80;;;;;;5003109;28;20194;-77
2022/02/11 14:29:20;;;;;;;2.70;1.10;;;9.40;99.20;;;;;;5002494;28;20178;-77
2022/02/11 14:31:47;;;;;;;3.45;1.13;;;9.40;98.60;;;;;;5005010;28;20183;-77
2022/02/11 14:34:14;;;;;;;3.20;0.90;;;9.30;98.40;;;;;;5003492;28;20643;-78
2022/02/11 14:36:42;;;;;;;4.80;1.20;;;9.40;98.50;;;;;;5000937;28;20254;-79
2022/02/11 14:39:16;;;;;;;7.75;1.52;;;9.40;98.90;;;;;;4985975;28;20214;-79
2022/02/11 14:41:47;;;;;;;4.80;1.20;;;9.40;98.30;;;;;;5000236;28;20174;-76
2022/02/11 14:44:24;;;;;;;3.65;1.00;;;9.40;97.90;;;;;;4976061;28;20171;-77
2022/02/11 14:46:52;;;;;;;4.22;1.10;;;9.40;98.60;;;;;;5000186;28;20206;-77
2022/02/11 14:49:19;;;;;;;5.07;1.85;;;9.40;99.00;;;;;;5002977;28;20174;-79
2022/02/11 14:51:50;;;;;;;6.55;1.98;;;9.40;98.80;;;;;;5008140;28;20202;-79
2022/02/11 14:54:17;;;;;;;5.93;1.88;;;9.40;98.90;;;;;;5000560;28;20179;-77
2022/02/11 14:56:43;;;;;;;6.55;1.42;;;9.40;98.50;;;;;;4994125;28;20198;-76
2022/02/11 14:59:10;;;;;;;5.75;1.70;;;9.40;99.60;;;;;;5000326;28;20230;-79
2022/02/11 15:01:40;;;;;;;4.20;1.45;;;9.40;99.20;;;;;;4977637;28;20174;-78
2022/02/11 15:04:06;;;;;;;5.18;1.58;;;9.40;99.40;;;;;;4999891;28;20178;-79
2022/02/11 15:06:32;;;;;;;5.22;1.25;;;9.40;99.20;;;;;;4999744;28;20198;-78
2022/02/11 15:08:58;;;;;;;2.90;0.90;;;9.40;98.80;;;;;;4985927;28;20523;-78
2022/02/11 15:11:25;;;;;;;4.37;1.10;;;9.40;99.60;;;;;;4982117;28;20260;-78
2022/02/11 15:13:51;;;;;;;4.88;1.33;;;9.40;99.60;;;;;;4999628;28;20189;-78
2022/02/11 15:16:17;;;;;;;6.47;1.67;;;9.40;99.30;;;;;;4986220;28;20198;-78
2022/02/11 15:18:42;;;;;;;5.73;1.00;;;9.50;99.80;;;;;;5020668;28;20196;-79
2022/02/11 15:21:08;;;;;;;3.80;1.00;;;9.50;99.80;;;;;;4989303;28;20178;-79
2022/02/11 15:23:36;;;;;;;5.85;1.10;;;9.60;99.80;;;;;;4991323;28;20207;-76
2022/02/11 15:26:04;;;;;;;5.20;1.10;;;9.60;99.80;;;;;;5003805;28;20197;-80
2022/02/11 15:28:30;;;;;;;3.53;1.10;;;9.60;99.90;;;;;;5009930;28;20546;-77
2022/02/11 15:30:56;;;;;;;8.02;1.20;;;9.60;99.90;;;;;;5009439;28;20577;-77
2022/02/11 15:33:22;;;;;;;4.07;1.13;;;9.70;99.90;;;;;;5000652;28;20187;-77
2022/02/11 15:35:47;;;;;;;6.20;1.50;;;9.70;99.90;;;;;;5002998;28;20627;-77
2022/02/11 15:38:13;;;;;;;4.10;1.17;;;9.70;99.90;;;;;;5008619;28;20252;-77
2022/02/11 15:40:39;;;;;;;4.57;1.15;;;9.80;99.90;;;;;;5003538;28;20171;-77
2022/02/11 15:43:06;;;;;;;4.17;1.30;;;9.80;99.90;;;;;;5006682;28;20174;-77
2022/02/11 15:45:32;;;;;;;4.70;1.15;;;9.80;99.90;;;;;;5003987;28;20245;-78
2022/02/11 15:47:58;;;;;;;2.83;1.07;;;9.80;99.90;;;;;;5003120;28;20242;-77
2022/02/11 15:50:24;;;;;;;4.93;1.42;;;9.70;99.80;;;;;;4988127;28;20601;-78
2022/02/11 15:52:52;;;;;;;2.28;1.10;;;9.70;99.90;;;;;;4994604;28;20182;-78
2022/02/11 15:55:27;;;;;;;3.42;1.10;;;9.70;99.90;;;;;;5010151;28;20549;-80
2022/02/11 15:57:52;;;;;;;6.45;1.38;;;9.60;98.80;;;;;;4969284;28;20241;-79
2022/02/11 16:00:18;;;;;;;6.00;1.23;;;9.50;99.40;;;;;;4972788;28;20565;-77
2022/02/11 16:02:45;;;;;;;5.85;1.10;;;9.40;99.20;;;;;;4973668;28;20183;-78
2022/02/11 16:05:12;;;;;;;3.28;1.10;;;9.30;98.70;;;;;;5006307;28;20171;-77
2022/02/11 16:07:38;;;;;;;4.80;1.00;;;9.20;98.80;;;;;;5008822;28;20544;-78
2022/02/11 16:10:06;;;;;;;4.85;1.10;;;9.10;98.80;;;;;;4989513;28;20174;-77
2022/02/11 16:12:31;;;;;;;5.43;1.08;;;9.10;99.10;;;;;;4987331;28;20579;-79
2022/02/11 16:14:58;;;;;;;4.30;1.50;;;8.90;99.00;;;;;;5006505;28;20182;-78
2022/02/11 16:17:24;;;;;;;7.93;1.25;;;8.90;99.10;;;;;;5002661;28;20203;-78
2022/02/11 16:19:50;;;;;;;5.20;1.10;;;8.80;99.20;;;;;;5002418;28;20229;-77
2022/02/11 16:22:16;;;;;;;4.13;1.17;;;8.70;99.30;;;;;;5002915;28;20894;-78
2022/02/11 16:24:43;;;;;;;3.53;1.00;;;8.70;99.60;;;;;;5003158;28;20581;-79
2022/02/11 16:27:11;;;;;;;2.45;1.20;;;8.60;99.50;;;;;;5008990;28;20702;-79
2022/02/11 16:29:37;;;;;;;4.60;1.17;;;8.60;99.70;;;;;;5009233;28;20655;-79
2022/02/11 16:32:04;;;;;;;7.10;4.00;;;8.60;99.80;;;;;;4985725;28;20220;-78
2022/02/11 16:34:30;;;;;;;8.02;3.25;;;8.60;99.90;;;;;;5013030;28;20281;-79
2022/02/11 16:36:57;;;;;;;6.85;2.17;;;8.60;99.90;;;;;;4989392;28;20186;-79
2022/02/11 16:39:24;;;;;;;6.10;1.33;;;8.50;99.90;;;;;;5001469;28;20278;-79
2022/02/11 16:41:50;;;;;;;4.80;1.60;;;8.60;99.90;;;;;;5005779;28;20193;-79
2022/02/11 16:44:18;;;;;;;4.63;1.75;;;8.60;99.90;;;;;;5009965;28;20179;-78
2022/02/11 16:46:45;;;;;;;10.65;2.78;;;8.60;99.90;;;;;;5001273;28;20283;-78
2022/02/11 16:49:20;;;;;;;6.78;2.10;;;8.50;99.90;;;;;;5012022;28;20914;-78